createdAt,value
2018-08-24T00:00:33.807Z,62.95
2018-08-24T00:01:14.416Z,62.82
2018-08-24T00:01:54.977Z,63.05
2018-08-24T00:02:35.523Z,63.31
2018-08-24T00:03:16.632Z,63.53
2018-08-24T00:03:57.342Z,63.73
2018-08-24T00:04:38.033Z,63.6
2018-08-24T00:05:18.598Z,63.5
2018-08-24T00:05:59.193Z,63.63
2018-08-24T00:06:39.790Z,63.21
2018-08-24T00:07:20.633Z,63.98
2018-08-24T00:08:01.194Z,64.27
2018-08-24T00:08:41.848Z,64.37
2018-08-24T00:09:22.484Z,64.76
2018-08-24T00:10:03.087Z,64.95
2018-08-24T00:10:43.716Z,64.66
2018-08-24T00:11:24.336Z,64.66
2018-08-24T00:12:04.946Z,64.56
2018-08-24T00:12:45.502Z,64.66
2018-08-24T00:13:26.129Z,64.85
2018-08-24T00:14:06.682Z,64.76
2018-08-24T00:14:47.306Z,64.66
2018-08-24T00:15:27.943Z,64.95
2018-08-24T00:16:09.179Z,64.76
2018-08-24T00:16:49.769Z,64.76
2018-08-24T00:17:30.431Z,64.76
2018-08-24T00:18:10.983Z,64.47
2018-08-24T00:18:51.552Z,64.66
2018-08-24T00:19:32.128Z,64.85
2018-08-24T00:20:12.678Z,65.05
2018-08-24T00:20:53.252Z,64.85
2018-08-24T00:21:33.847Z,65.05
2018-08-24T00:22:14.409Z,64.76
2018-08-24T00:22:54.981Z,64.85
2018-08-24T00:23:35.531Z,65.14
2018-08-24T00:24:16.112Z,65.43
2018-08-24T00:24:56.657Z,65.24
2018-08-24T00:25:37.211Z,65.53
2018-08-24T00:26:17.774Z,65.05
2018-08-24T00:26:58.352Z,65.14
2018-08-24T00:27:38.901Z,64.85
2018-08-24T00:28:19.458Z,64.66
2018-08-24T00:29:00.018Z,64.85
2018-08-24T00:29:40.582Z,64.95
2018-08-24T00:30:21.167Z,64.92
2018-08-24T00:31:01.745Z,65.05
2018-08-24T00:31:42.355Z,65.24
2018-08-24T00:32:22.859Z,64.82
2018-08-24T00:33:03.435Z,64.76
2018-08-24T00:33:43.993Z,64.76
2018-08-24T00:34:24.569Z,64.92
2018-08-24T00:35:05.095Z,64.92
2018-08-24T00:35:45.671Z,64.72
2018-08-24T00:36:26.220Z,64.72
2018-08-24T00:37:06.777Z,64.72
2018-08-24T00:37:47.334Z,65.01
2018-08-24T00:38:27.908Z,65.5
2018-08-24T00:39:08.468Z,65.11
2018-08-24T00:39:49.039Z,65.2
2018-08-24T00:40:29.614Z,65.4
2018-08-24T00:41:10.273Z,65.5
2018-08-24T00:41:50.832Z,65.3
2018-08-24T00:42:31.422Z,65.3
2018-08-24T00:43:11.954Z,65.3
2018-08-24T00:43:52.527Z,65.59
2018-08-24T00:44:33.096Z,65.2
2018-08-24T00:45:13.658Z,65.59
2018-08-24T00:45:54.235Z,65.88
2018-08-24T00:46:34.809Z,65.98
2018-08-24T00:47:15.373Z,65.98
2018-08-24T00:47:55.957Z,65.98
2018-08-24T00:48:36.544Z,66.27
2018-08-24T00:49:17.110Z,66.17
2018-08-24T00:49:57.662Z,66.27
2018-08-24T00:50:38.224Z,66.17
2018-08-24T00:51:18.785Z,66.36
2018-08-24T00:51:59.344Z,66.17
2018-08-24T00:52:39.904Z,66.46
2018-08-24T00:53:20.525Z,66.66
2018-08-24T00:54:01.091Z,66.85
2018-08-24T00:54:41.674Z,67.14
2018-08-24T00:55:22.228Z,66.94
2018-08-24T00:56:02.800Z,67.04
2018-08-24T00:56:43.347Z,66.85
2018-08-24T00:57:23.911Z,66.56
2018-08-24T00:58:04.471Z,66.94
2018-08-24T00:58:45.037Z,67.33
2018-08-24T00:59:25.611Z,67.2
2018-08-24T01:00:06.192Z,67.2
2018-08-24T01:00:46.766Z,67.2
2018-08-24T01:01:27.333Z,67.59
2018-08-24T01:02:07.931Z,67.49
2018-08-24T01:02:48.503Z,67.49
2018-08-24T01:03:29.087Z,67.88
2018-08-24T01:04:09.640Z,68.17
2018-08-24T01:04:50.203Z,67.88
2018-08-24T01:05:30.828Z,67.97
2018-08-24T01:06:11.493Z,67.59
2018-08-24T01:06:52.076Z,67.2
2018-08-24T01:07:32.675Z,67.2
2018-08-24T01:08:13.221Z,67.3
2018-08-24T01:08:53.792Z,67.2
2018-08-24T01:09:34.367Z,67.2
2018-08-24T01:10:14.918Z,67.4
2018-08-24T01:10:55.492Z,67.4
2018-08-24T01:11:36.055Z,67.3
2018-08-24T01:12:16.623Z,67.11
2018-08-24T01:12:57.190Z,67.01
2018-08-24T01:13:37.755Z,67.3
2018-08-24T01:14:18.313Z,67.11
2018-08-24T01:14:58.884Z,67.01
2018-08-24T01:15:39.439Z,67.11
2018-08-24T01:16:20.004Z,67.2
2018-08-24T01:17:00.589Z,67.59
2018-08-24T01:17:41.160Z,67.4
2018-08-24T01:18:21.785Z,67.78
2018-08-24T01:19:02.352Z,66.82
2018-08-24T01:19:42.924Z,67.2
2018-08-24T01:20:23.488Z,66.82
2018-08-24T01:21:04.059Z,67.2
2018-08-24T01:21:44.609Z,67.3
2018-08-24T01:22:25.168Z,66.91
2018-08-24T01:23:05.755Z,67.11
2018-08-24T01:23:46.306Z,67.59
2018-08-24T01:24:26.873Z,67.2
2018-08-24T01:25:07.429Z,67.01
2018-08-24T01:25:47.995Z,67.2
2018-08-24T01:26:28.570Z,67.11
2018-08-24T01:27:09.125Z,67.2
2018-08-24T01:27:49.706Z,67.33
2018-08-24T01:28:30.247Z,67.11
2018-08-24T01:29:10.806Z,66.91
2018-08-24T01:29:51.389Z,67.11
2018-08-24T01:30:31.950Z,67.2
2018-08-24T01:31:12.506Z,67.14
2018-08-24T01:31:53.067Z,67.24
2018-08-24T01:32:33.618Z,67.59
2018-08-24T01:33:14.190Z,67.33
2018-08-24T01:33:54.747Z,67.11
2018-08-24T01:34:35.309Z,67.2
2018-08-24T01:35:15.869Z,67.24
2018-08-24T01:35:56.422Z,67.11
2018-08-24T01:36:37.021Z,67.59
2018-08-24T01:37:17.581Z,67.59
2018-08-24T01:37:58.135Z,67.59
2018-08-24T01:38:38.696Z,67.88
2018-08-24T01:39:19.296Z,67.49
2018-08-24T01:39:59.863Z,67.59
2018-08-24T01:40:40.433Z,67.49
2018-08-24T01:41:20.998Z,67.4
2018-08-24T01:42:01.568Z,67.59
2018-08-24T01:42:42.152Z,67.97
2018-08-24T01:43:22.719Z,67.78
2018-08-24T01:44:03.271Z,68.07
2018-08-24T01:44:43.831Z,67.88
2018-08-24T01:45:24.401Z,68.17
2018-08-24T01:46:04.955Z,68.07
2018-08-24T01:46:45.525Z,68.07
2018-08-24T01:47:26.088Z,67.97
2018-08-24T01:48:06.664Z,67.78
2018-08-24T01:48:47.229Z,68.36
2018-08-24T01:49:27.788Z,68.26
2018-08-24T01:50:08.349Z,68.17
2018-08-24T01:50:48.908Z,68.17
2018-08-24T01:51:29.470Z,68.26
2018-08-24T01:52:10.046Z,68.07
2018-08-24T01:52:50.623Z,68.26
2018-08-24T01:53:31.200Z,68.17
2018-08-24T01:54:11.748Z,68.36
2018-08-24T01:54:52.324Z,68.17
2018-08-24T01:55:32.889Z,67.97
2018-08-24T01:56:13.442Z,68.26
2018-08-24T01:56:54.004Z,67.88
2018-08-24T01:57:34.581Z,68.07
2018-08-24T01:58:15.178Z,67.97
2018-08-24T01:58:55.770Z,68.36
2018-08-24T01:59:36.316Z,68.84
2018-08-24T02:00:16.895Z,68.75
2018-08-24T02:00:57.443Z,68.65
2018-08-24T02:01:38.030Z,68.36
2018-08-24T02:02:18.627Z,68.75
2018-08-24T02:02:59.192Z,68.71
2018-08-24T02:03:39.757Z,68.65
2018-08-24T02:04:20.334Z,68.65
2018-08-24T02:05:00.904Z,68.81
2018-08-24T02:05:41.465Z,68.65
2018-08-24T02:06:22.046Z,69.23
2018-08-24T02:07:02.651Z,69.49
2018-08-24T02:07:43.213Z,69.29
2018-08-24T02:08:23.780Z,69
2018-08-24T02:09:04.335Z,69.23
2018-08-24T02:09:44.940Z,69
2018-08-24T02:10:25.501Z,69
2018-08-24T02:11:06.071Z,69.1
2018-08-24T02:11:46.668Z,69.49
2018-08-24T02:12:27.192Z,69.49
2018-08-24T02:13:07.761Z,69.39
2018-08-24T02:13:48.333Z,69.39
2018-08-24T02:14:28.974Z,69.39
2018-08-24T02:15:09.523Z,69.1
2018-08-24T02:15:50.067Z,69.39
2018-08-24T02:16:30.634Z,69.2
2018-08-24T02:17:11.208Z,68.91
2018-08-24T02:17:51.775Z,68.91
2018-08-24T02:18:32.328Z,69.1
2018-08-24T02:19:12.879Z,69
2018-08-24T02:19:53.459Z,69.29
2018-08-24T02:20:34.015Z,68.81
2018-08-24T02:21:14.578Z,68.33
2018-08-24T02:21:55.125Z,68.33
2018-08-24T02:22:35.694Z,68.52
2018-08-24T02:23:16.251Z,68.33
2018-08-24T02:23:56.816Z,68.91
2018-08-24T02:24:37.372Z,68.91
2018-08-24T02:25:17.937Z,68.91
2018-08-24T02:25:58.502Z,69.29
2018-08-24T02:26:39.063Z,69.39
2018-08-24T02:27:19.655Z,69.68
2018-08-24T02:28:00.219Z,69.68
2018-08-24T02:28:40.784Z,69.58
2018-08-24T02:29:21.346Z,69.87
2018-08-24T02:30:01.932Z,69.78
2018-08-24T02:30:42.483Z,70.36
2018-08-24T02:31:23.047Z,70.26
2018-08-24T02:32:03.615Z,69.97
2018-08-24T02:32:44.184Z,70.45
2018-08-24T02:33:24.754Z,70.32
2018-08-24T02:34:05.319Z,70.45
2018-08-24T02:34:45.884Z,70.26
2018-08-24T02:35:26.458Z,70.42
2018-08-24T02:36:07.023Z,70.32
2018-08-24T02:36:47.583Z,70.06
2018-08-24T02:37:28.182Z,70.26
2018-08-24T02:38:08.757Z,70.06
2018-08-24T02:38:49.321Z,70.36
2018-08-24T02:39:29.942Z,70.36
2018-08-24T02:40:10.505Z,70.94
2018-08-24T02:40:51.092Z,70.74
2018-08-24T02:41:31.660Z,70.64
2018-08-24T02:42:12.219Z,70.36
2018-08-24T02:42:52.777Z,70.74
2018-08-24T02:43:33.341Z,70.54
2018-08-24T02:44:13.911Z,70.64
2018-08-24T02:44:54.495Z,70.36
2018-08-24T02:45:35.029Z,70.36
2018-08-24T02:46:15.588Z,70.54
2018-08-24T02:46:56.149Z,70.36
2018-08-24T02:47:36.710Z,69.97
2018-08-24T02:48:17.283Z,70.36
2018-08-24T02:48:57.841Z,70.45
2018-08-24T02:49:38.405Z,70.16
2018-08-24T02:50:18.992Z,70.64
2018-08-24T02:50:59.554Z,70.36
2018-08-24T02:51:40.145Z,70.54
2018-08-24T02:52:20.719Z,71.12
2018-08-24T02:53:01.283Z,71.22
2018-08-24T02:53:41.871Z,71.03
2018-08-24T02:54:22.448Z,70.45
2018-08-24T02:55:03.011Z,71.03
2018-08-24T02:55:43.582Z,71.22
2018-08-24T02:56:24.147Z,70.84
2018-08-24T02:57:04.721Z,71.03
2018-08-24T02:57:45.293Z,71.32
2018-08-24T02:58:25.857Z,70.64
2018-08-24T02:59:06.427Z,70.64
2018-08-24T02:59:46.968Z,70.36
2018-08-24T03:00:27.543Z,70.74
2018-08-24T03:01:08.105Z,70.54
2018-08-24T03:01:48.684Z,70.64
2018-08-24T03:02:29.244Z,71.12
2018-08-24T03:03:09.800Z,71.03
2018-08-24T03:03:50.367Z,70.74
2018-08-24T03:04:30.967Z,71.12
2018-08-24T03:05:11.634Z,70.74
2018-08-24T03:05:52.079Z,71.22
2018-08-24T03:06:32.623Z,70.84
2018-08-24T03:07:13.220Z,70.45
2018-08-24T03:07:53.794Z,70.54
2018-08-24T03:08:34.354Z,71.12
2018-08-24T03:09:14.974Z,70.54
2018-08-24T03:09:55.528Z,70.36
2018-08-24T03:10:36.182Z,71.12
2018-08-24T03:11:16.774Z,71.03
2018-08-24T03:11:57.355Z,70.54
2018-08-24T03:12:37.987Z,70.64
2018-08-24T03:13:18.569Z,70.45
2018-08-24T03:13:59.147Z,70.54
2018-08-24T03:14:39.725Z,70.45
2018-08-24T03:15:20.292Z,70.54
2018-08-24T03:16:00.900Z,70.54
2018-08-24T03:16:41.449Z,70.26
2018-08-24T03:17:22.024Z,70.36
2018-08-24T03:18:02.580Z,70.54
2018-08-24T03:18:43.136Z,69.97
2018-08-24T03:19:23.687Z,69.78
2018-08-24T03:20:04.234Z,69.78
2018-08-24T03:20:44.788Z,69.68
2018-08-24T03:21:25.337Z,70.16
2018-08-24T03:22:05.934Z,70.36
2018-08-24T03:22:46.579Z,70.26
2018-08-24T03:23:27.135Z,70.45
2018-08-24T03:24:07.693Z,70.36
2018-08-24T03:24:48.261Z,70.06
2018-08-24T03:25:28.806Z,70.06
2018-08-24T03:26:09.371Z,70.36
2018-08-24T03:26:49.938Z,70.06
2018-08-24T03:27:30.498Z,69.87
2018-08-24T03:28:11.085Z,69.58
2018-08-24T03:28:51.667Z,69.68
2018-08-24T03:29:32.221Z,69.58
2018-08-24T03:30:12.801Z,69.68
2018-08-24T03:30:53.362Z,69.58
2018-08-24T03:31:33.927Z,69.87
2018-08-24T03:32:14.752Z,70.26
2018-08-24T03:32:55.303Z,70.45
2018-08-24T03:33:35.872Z,70.06
2018-08-24T03:34:16.412Z,70.36
2018-08-24T03:34:56.973Z,70.36
2018-08-24T03:35:37.541Z,70.26
2018-08-24T03:36:18.236Z,70.06
2018-08-24T03:36:58.790Z,70.06
2018-08-24T03:37:39.363Z,70.54
2018-08-24T03:38:19.937Z,70.36
2018-08-24T03:39:00.500Z,70.36
2018-08-24T03:39:41.078Z,69.97
2018-08-24T03:40:21.661Z,70.26
2018-08-24T03:41:02.227Z,70.45
2018-08-24T03:41:42.818Z,70.26
2018-08-24T03:42:23.367Z,70.06
2018-08-24T03:43:03.942Z,70.06
2018-08-24T03:43:44.483Z,70.54
2018-08-24T03:44:25.123Z,70.26
2018-08-24T03:45:05.619Z,70.26
2018-08-24T03:45:46.235Z,70.64
2018-08-24T03:46:26.758Z,70.26
2018-08-24T03:47:07.316Z,70.16
2018-08-24T03:47:47.907Z,70.16
2018-08-24T03:48:28.465Z,70.64
2018-08-24T03:49:09.062Z,70.16
2018-08-24T03:49:49.624Z,70.64
2018-08-24T03:50:30.185Z,70.54
2018-08-24T03:51:10.742Z,70.74
2018-08-24T03:51:51.303Z,70.26
2018-08-24T03:52:31.855Z,70.45
2018-08-24T03:53:12.483Z,70.64
2018-08-24T03:53:53.053Z,70.64
2018-08-24T03:54:33.687Z,70.54
2018-08-24T03:55:14.252Z,70.36
2018-08-24T03:55:54.890Z,70.74
2018-08-24T03:56:35.425Z,70.74
2018-08-24T03:57:15.983Z,70.64
2018-08-24T03:57:56.569Z,70.74
2018-08-24T03:58:37.127Z,70.54
2018-08-24T03:59:17.689Z,70.26
2018-08-24T03:59:58.255Z,70.36
2018-08-24T04:00:38.834Z,70.16
2018-08-24T04:01:19.396Z,70.36
2018-08-24T04:01:59.968Z,70.36
2018-08-24T04:02:40.526Z,70.06
2018-08-24T04:03:21.097Z,69.68
2018-08-24T04:04:01.674Z,69.58
2018-08-24T04:04:42.307Z,69.49
2018-08-24T04:05:22.864Z,69.68
2018-08-24T04:06:03.414Z,69.78
2018-08-24T04:06:43.985Z,69.49
2018-08-24T04:07:24.555Z,69.39
2018-08-24T04:08:05.131Z,69.87
2018-08-24T04:08:45.738Z,69.97
2018-08-24T04:09:26.271Z,70.45
2018-08-24T04:10:06.891Z,70.06
2018-08-24T04:10:47.449Z,70.36
2018-08-24T04:11:28.006Z,70.26
2018-08-24T04:12:08.626Z,69.58
2018-08-24T04:12:49.188Z,69.68
2018-08-24T04:13:29.754Z,69.78
2018-08-24T04:14:10.314Z,69.87
2018-08-24T04:14:50.884Z,70.06
2018-08-24T04:15:31.449Z,70.16
2018-08-24T04:16:12.041Z,69.58
2018-08-24T04:16:52.613Z,69.49
2018-08-24T04:17:33.179Z,69.68
2018-08-24T04:18:13.769Z,69.68
2018-08-24T04:18:54.375Z,69.58
2018-08-24T04:19:34.996Z,69.58
2018-08-24T04:20:15.489Z,69.58
2018-08-24T04:20:56.058Z,69.58
2018-08-24T04:21:36.612Z,69.68
2018-08-24T04:22:17.225Z,69.87
2018-08-24T04:22:57.788Z,69.58
2018-08-24T04:23:38.367Z,69.49
2018-08-24T04:24:18.907Z,68.91
2018-08-24T04:24:59.476Z,69.1
2018-08-24T04:25:40.114Z,69.1
2018-08-24T04:26:20.618Z,68.62
2018-08-24T04:27:01.219Z,68.81
2018-08-24T04:27:41.788Z,68.81
2018-08-24T04:28:22.375Z,69.1
2018-08-24T04:29:02.933Z,69.2
2018-08-24T04:29:43.496Z,68.43
2018-08-24T04:30:24.056Z,68.62
2018-08-24T04:31:04.624Z,68.33
2018-08-24T04:31:45.193Z,68.68
2018-08-24T04:32:25.756Z,68.91
2018-08-24T04:33:06.324Z,68.87
2018-08-24T04:33:46.896Z,68.81
2018-08-24T04:34:27.461Z,68.81
2018-08-24T04:35:08.039Z,68.71
2018-08-24T04:35:48.576Z,68.81
2018-08-24T04:36:29.300Z,68.33
2018-08-24T04:37:09.899Z,68.71
2018-08-24T04:37:50.468Z,68.62
2018-08-24T04:38:31.029Z,68.62
2018-08-24T04:39:11.598Z,68.62
2018-08-24T04:39:52.155Z,68.81
2018-08-24T04:40:32.722Z,68.62
2018-08-24T04:41:13.290Z,69.2
2018-08-24T04:41:53.860Z,69
2018-08-24T04:42:34.420Z,68.62
2018-08-24T04:43:14.993Z,68.81
2018-08-24T04:43:55.559Z,68.81
2018-08-24T04:44:36.132Z,67.94
2018-08-24T04:45:16.690Z,68.33
2018-08-24T04:45:57.260Z,67.91
2018-08-24T04:46:37.841Z,68.23
2018-08-24T04:47:18.406Z,68.29
2018-08-24T04:47:58.967Z,68.23
2018-08-24T04:48:39.532Z,68.39
2018-08-24T04:49:20.112Z,68.68
2018-08-24T04:50:00.700Z,68.19
2018-08-24T04:50:41.268Z,68.49
2018-08-24T04:51:21.930Z,68.68
2018-08-24T04:52:02.509Z,68.87
2018-08-24T04:52:43.039Z,68.59
2018-08-24T04:53:23.595Z,68.49
2018-08-24T04:54:04.195Z,68.77
2018-08-24T04:54:44.798Z,68.49
2018-08-24T04:55:25.344Z,68.68
2018-08-24T04:56:06.019Z,68.59
2018-08-24T04:56:46.595Z,68.59
2018-08-24T04:57:27.166Z,68.77
2018-08-24T04:58:07.732Z,68.68
2018-08-24T04:58:48.362Z,68.87
2018-08-24T04:59:28.933Z,68.29
2018-08-24T05:00:09.558Z,68.59
2018-08-24T05:00:50.128Z,68.59
2018-08-24T05:01:30.697Z,68.39
2018-08-24T05:02:11.275Z,68.77
2018-08-24T05:02:51.852Z,68.49
2018-08-24T05:03:32.430Z,68.59
2018-08-24T05:04:12.986Z,69.16
2018-08-24T05:04:53.566Z,68.68
2018-08-24T05:05:34.139Z,68.87
2018-08-24T05:06:14.708Z,68.68
2018-08-24T05:06:55.276Z,68.49
2018-08-24T05:07:35.845Z,68.68
2018-08-24T05:08:16.452Z,68.97
2018-08-24T05:08:56.997Z,68.39
2018-08-24T05:09:37.582Z,68.97
2018-08-24T05:10:18.146Z,68.39
2018-08-24T05:10:58.717Z,68.77
2018-08-24T05:11:39.280Z,68.39
2018-08-24T05:12:19.846Z,68.29
2018-08-24T05:13:00.417Z,68.19
2018-08-24T05:13:40.991Z,68.49
2018-08-24T05:14:21.569Z,69.07
2018-08-24T05:15:02.144Z,68.59
2018-08-24T05:15:42.709Z,68.39
2018-08-24T05:16:23.323Z,68.49
2018-08-24T05:17:03.877Z,68.68
2018-08-24T05:17:44.450Z,68.68
2018-08-24T05:18:25.023Z,68.59
2018-08-24T05:19:05.614Z,68.49
2018-08-24T05:19:46.192Z,68.29
2018-08-24T05:20:26.751Z,68.59
2018-08-24T05:21:07.335Z,68.77
2018-08-24T05:21:47.904Z,69.26
2018-08-24T05:22:28.517Z,69.26
2018-08-24T05:23:09.096Z,68.87
2018-08-24T05:23:49.662Z,69.07
2018-08-24T05:24:30.230Z,69.64
2018-08-24T05:25:10.800Z,69.26
2018-08-24T05:25:51.363Z,69.64
2018-08-24T05:26:31.925Z,69.74
2018-08-24T05:27:12.488Z,69.64
2018-08-24T05:27:53.040Z,69.74
2018-08-24T05:28:33.627Z,69.55
2018-08-24T05:29:14.204Z,69.74
2018-08-24T05:29:54.763Z,69.74
2018-08-24T05:30:35.325Z,69.74
2018-08-24T05:31:15.894Z,69.74
2018-08-24T05:31:56.489Z,69.35
2018-08-24T05:32:37.084Z,69.74
2018-08-24T05:33:17.646Z,69.64
2018-08-24T05:33:58.198Z,69.55
2018-08-24T05:34:38.768Z,69.55
2018-08-24T05:35:19.345Z,69.84
2018-08-24T05:35:59.905Z,69.64
2018-08-24T05:36:40.463Z,70.22
2018-08-24T05:37:21.040Z,70.22
2018-08-24T05:38:01.593Z,70.32
2018-08-24T05:38:42.162Z,70.22
2018-08-24T05:39:22.727Z,70.42
2018-08-24T05:40:03.304Z,69.64
2018-08-24T05:40:43.866Z,70.32
2018-08-24T05:41:24.431Z,69.74
2018-08-24T05:42:04.991Z,69.74
2018-08-24T05:42:45.553Z,69.64
2018-08-24T05:43:26.116Z,69.74
2018-08-24T05:44:06.681Z,70.03
2018-08-24T05:44:47.257Z,70.32
2018-08-24T05:45:27.886Z,70.42
2018-08-24T05:46:08.449Z,70.32
2018-08-24T05:46:49.011Z,70.32
2018-08-24T05:47:29.570Z,70.42
2018-08-24T05:48:10.149Z,69.93
2018-08-24T05:48:50.768Z,70.13
2018-08-24T05:49:31.305Z,69.84
2018-08-24T05:50:11.872Z,70.42
2018-08-24T05:50:52.436Z,70.42
2018-08-24T05:51:32.992Z,69.74
2018-08-24T05:52:13.558Z,70.32
2018-08-24T05:52:54.172Z,69.74
2018-08-24T05:53:34.733Z,70.42
2018-08-24T05:54:15.294Z,70.42
2018-08-24T05:54:55.860Z,70.22
2018-08-24T05:55:36.474Z,70.32
2018-08-24T05:56:17.000Z,70.13
2018-08-24T05:56:57.612Z,69.93
2018-08-24T05:57:38.177Z,70.32
2018-08-24T05:58:18.785Z,70.32
2018-08-24T05:58:59.358Z,70.32
2018-08-24T05:59:39.927Z,70.61
2018-08-24T06:00:20.484Z,70.42
2018-08-24T06:01:01.053Z,69.93
2018-08-24T06:01:41.626Z,70.22
2018-08-24T06:02:22.193Z,70.32
2018-08-24T06:03:02.771Z,70.61
2018-08-24T06:03:43.426Z,70.32
2018-08-24T06:04:23.999Z,70.32
2018-08-24T06:05:04.568Z,70.32
2018-08-24T06:05:45.253Z,69.93
2018-08-24T06:06:25.711Z,70.42
2018-08-24T06:07:06.281Z,70.22
2018-08-24T06:07:46.833Z,70.54
2018-08-24T06:08:27.408Z,69.93
2018-08-24T06:09:08.006Z,70.13
2018-08-24T06:09:48.603Z,69.64
2018-08-24T06:10:29.152Z,70.32
2018-08-24T06:11:09.726Z,69.93
2018-08-24T06:11:50.353Z,70.13
2018-08-24T06:12:30.903Z,70.22
2018-08-24T06:13:11.468Z,69.97
2018-08-24T06:13:52.074Z,70.32
2018-08-24T06:14:32.693Z,69.84
2018-08-24T06:15:13.243Z,70.26
2018-08-24T06:15:53.837Z,70.22
2018-08-24T06:16:34.427Z,70.26
2018-08-24T06:17:14.960Z,70.06
2018-08-24T06:17:55.522Z,69.78
2018-08-24T06:18:36.088Z,69.87
2018-08-24T06:19:16.652Z,69.39
2018-08-24T06:19:57.245Z,69.2
2018-08-24T06:20:37.811Z,69.2
2018-08-24T06:21:18.401Z,69.49
2018-08-24T06:21:58.940Z,68.33
2018-08-24T06:22:39.502Z,68.43
2018-08-24T06:23:20.070Z,68.62
2018-08-24T06:24:00.634Z,69.2
2018-08-24T06:24:41.273Z,69.07
2018-08-24T06:25:22.478Z,68.91
2018-08-24T06:26:03.093Z,69.49
2018-08-24T06:26:43.673Z,69.68
2018-08-24T06:27:24.271Z,69.2
2018-08-24T06:28:04.857Z,68.62
2018-08-24T06:28:45.467Z,68.62
2018-08-24T06:29:26.057Z,69.29
2018-08-24T06:30:06.617Z,68.81
2018-08-24T06:30:47.167Z,68.59
2018-08-24T06:31:27.877Z,68.68
2018-08-24T06:32:08.505Z,68.71
2018-08-24T06:32:49.193Z,68.19
2018-08-24T06:33:29.718Z,68.29
2018-08-24T06:34:10.420Z,68.29
2018-08-24T06:34:50.945Z,68.29
2018-08-24T06:35:31.529Z,68.1
2018-08-24T06:36:12.107Z,68.68
2018-08-24T06:36:52.773Z,68.29
2018-08-24T06:37:33.586Z,68.77
2018-08-24T06:38:14.717Z,68.97
2018-08-24T06:38:55.129Z,69.35
2018-08-24T06:39:35.718Z,69.74
2018-08-24T06:40:16.416Z,69.55
2018-08-24T06:40:57.092Z,69.35
2018-08-24T06:41:37.841Z,69.35
2018-08-24T06:42:18.484Z,69.74
2018-08-24T06:42:59.011Z,69.64
2018-08-24T06:43:39.554Z,69.45
2018-08-24T06:44:20.128Z,69.26
2018-08-24T06:45:00.948Z,69.35
2018-08-24T06:45:41.476Z,69.26
2018-08-24T06:46:22.078Z,69.07
2018-08-24T06:47:02.637Z,68.68
2018-08-24T06:47:43.469Z,69.07
2018-08-24T06:48:23.983Z,68.77
2018-08-24T06:49:04.537Z,69.84
2018-08-24T06:49:45.140Z,69.26
2018-08-24T06:50:25.778Z,69.74
2018-08-24T06:51:06.421Z,69.64
2018-08-24T06:51:46.983Z,69.35
2018-08-24T06:52:27.549Z,69.35
2018-08-24T06:53:08.459Z,68.87
2018-08-24T06:53:49.043Z,69.16
2018-08-24T06:54:29.617Z,69.35
2018-08-24T06:55:10.319Z,69.64
2018-08-24T06:55:50.854Z,69.64
2018-08-24T06:56:31.465Z,69.74
2018-08-24T06:57:12.060Z,68.68
2018-08-24T06:57:52.686Z,68.19
2018-08-24T06:58:33.287Z,68.29
2018-08-24T06:59:13.991Z,67.91
2018-08-24T06:59:54.732Z,67.43
2018-08-24T07:00:35.466Z,66.94
2018-08-24T07:01:16.056Z,67.23
2018-08-24T07:01:56.619Z,67.14
2018-08-24T07:02:37.264Z,67.81
2018-08-24T07:03:17.912Z,68.13
2018-08-24T07:03:58.509Z,66.97
2018-08-24T07:04:39.078Z,67.04
2018-08-24T07:05:19.690Z,66.88
2018-08-24T07:06:00.323Z,67.23
2018-08-24T07:06:40.914Z,67.17
2018-08-24T07:07:21.465Z,67.27
2018-08-24T07:08:02.068Z,67.17
2018-08-24T07:08:42.632Z,67.07
2018-08-24T07:09:23.213Z,67.55
2018-08-24T07:10:03.764Z,67.65
2018-08-24T07:10:44.346Z,67.07
2018-08-24T07:11:24.931Z,66.4
2018-08-24T07:12:05.488Z,66.69
2018-08-24T07:12:46.191Z,66.78
2018-08-24T07:13:26.774Z,66.78
2018-08-24T07:14:07.391Z,66.49
2018-08-24T07:14:47.968Z,66.88
2018-08-24T07:15:28.530Z,66.49
2018-08-24T07:16:09.087Z,66.69
2018-08-24T07:16:49.663Z,66.11
2018-08-24T07:17:30.302Z,66.3
2018-08-24T07:18:10.930Z,66.2
2018-08-24T07:18:51.496Z,66.4
2018-08-24T07:19:32.119Z,66.4
2018-08-24T07:20:12.794Z,66.88
2018-08-24T07:20:53.331Z,66.78
2018-08-24T07:21:33.957Z,66.4
2018-08-24T07:22:14.540Z,66.59
2018-08-24T07:22:55.097Z,66.78
2018-08-24T07:23:35.655Z,66.49
2018-08-24T07:24:16.267Z,66.59
2018-08-24T07:24:56.850Z,66.4
2018-08-24T07:25:37.425Z,66.49
2018-08-24T07:26:18.018Z,66.69
2018-08-24T07:26:58.623Z,66.59
2018-08-24T07:27:39.176Z,66.69
2018-08-24T07:28:19.746Z,67.17
2018-08-24T07:29:00.313Z,67.55
2018-08-24T07:29:40.904Z,67.94
2018-08-24T07:30:21.435Z,67.97
2018-08-24T07:31:02.004Z,68.46
2018-08-24T07:31:42.563Z,68.4
2018-08-24T07:32:23.134Z,68.4
2018-08-24T07:33:03.701Z,66.56
2018-08-24T07:33:44.266Z,65.43
2018-08-24T07:34:24.837Z,65.24
2018-08-24T07:35:05.393Z,65.37
2018-08-24T07:35:45.996Z,64.79
2018-08-24T07:36:26.564Z,64.69
2018-08-24T07:37:07.143Z,63.43
2018-08-24T07:37:47.698Z,63.73
2018-08-24T07:38:28.261Z,62.95
2018-08-24T07:39:08.826Z,62.66
2018-08-24T07:39:49.389Z,62.95
2018-08-24T07:40:29.971Z,63.21
2018-08-24T07:41:10.529Z,63.79
2018-08-24T07:41:51.203Z,63.69
2018-08-24T07:42:31.665Z,63.98
2018-08-24T07:43:12.241Z,63.79
2018-08-24T07:43:52.808Z,63.5
2018-08-24T07:44:33.387Z,64.56
2018-08-24T07:45:13.959Z,64.85
2018-08-24T07:45:54.535Z,65.34
2018-08-24T07:46:35.103Z,65.43
2018-08-24T07:47:15.674Z,65.43
2018-08-24T07:47:56.228Z,65.17
2018-08-24T07:48:36.866Z,62.95
2018-08-24T07:49:17.432Z,62.37
2018-08-24T07:49:57.998Z,61.79
2018-08-24T07:50:38.599Z,61.69
2018-08-24T07:51:19.198Z,62.18
2018-08-24T07:51:59.728Z,62.27
2018-08-24T07:52:40.301Z,61.79
2018-08-24T07:53:20.880Z,61.89
2018-08-24T07:54:01.445Z,61.3
2018-08-24T07:54:42.014Z,61.5
2018-08-24T07:55:22.574Z,62.47
2018-08-24T07:56:03.139Z,62.47
2018-08-24T07:56:43.708Z,62.56
2018-08-24T07:57:24.274Z,62.37
2018-08-24T07:58:04.844Z,61.5
2018-08-24T07:58:45.424Z,61.79
2018-08-24T07:59:26.048Z,62.53
2018-08-24T08:00:06.609Z,62.24
2018-08-24T08:00:47.174Z,62.82
2018-08-24T08:01:27.783Z,62.82
2018-08-24T08:02:08.350Z,63.11
2018-08-24T08:02:48.931Z,63.31
2018-08-24T08:03:29.499Z,63.4
2018-08-24T08:04:10.120Z,63.56
2018-08-24T08:04:50.636Z,63.76
2018-08-24T08:05:31.270Z,63.18
2018-08-24T08:06:11.831Z,63.47
2018-08-24T08:06:52.409Z,63.95
2018-08-24T08:07:32.977Z,64.05
2018-08-24T08:08:13.553Z,63.85
2018-08-24T08:08:54.132Z,63.76
2018-08-24T08:09:34.672Z,63.76
2018-08-24T08:10:15.236Z,64.43
2018-08-24T08:10:55.804Z,63.28
2018-08-24T08:11:36.388Z,63.66
2018-08-24T08:12:17.031Z,63.28
2018-08-24T08:12:57.561Z,63.85
2018-08-24T08:13:38.160Z,63.95
2018-08-24T08:14:18.765Z,64.24
2018-08-24T08:14:59.325Z,64.05
2018-08-24T08:15:39.895Z,64.63
2018-08-24T08:16:20.464Z,64.63
2018-08-24T08:17:01.033Z,64.82
2018-08-24T08:17:41.608Z,65.01
2018-08-24T08:18:22.264Z,65.3
2018-08-24T08:19:02.718Z,66.08
2018-08-24T08:19:43.284Z,66.17
2018-08-24T08:20:23.893Z,66.75
2018-08-24T08:21:04.495Z,66.56
2018-08-24T08:21:45.059Z,67.2
2018-08-24T08:22:25.632Z,67.04
2018-08-24T08:23:06.208Z,67.91
2018-08-24T08:23:46.790Z,68.3
2018-08-24T08:24:27.385Z,68.68
2018-08-24T08:25:07.953Z,68.88
2018-08-24T08:25:48.546Z,68.84
2018-08-24T08:26:29.134Z,68.49
2018-08-24T08:27:09.717Z,68.94
2018-08-24T08:27:50.320Z,69.42
2018-08-24T08:28:30.893Z,69.62
2018-08-24T08:29:11.447Z,69.71
2018-08-24T08:29:52.027Z,69.71
2018-08-24T08:30:32.618Z,70.48
2018-08-24T08:31:13.409Z,70.29
2018-08-24T08:31:53.989Z,70.48
2018-08-24T08:32:34.566Z,70.39
2018-08-24T08:33:15.136Z,69.9
2018-08-24T08:33:55.701Z,69.71
2018-08-24T08:34:36.280Z,70
2018-08-24T08:35:16.839Z,69.71
2018-08-24T08:35:57.402Z,69.71
2018-08-24T08:36:37.981Z,69.81
2018-08-24T08:37:18.553Z,70
2018-08-24T08:37:59.129Z,69.71
2018-08-24T08:38:39.673Z,69.71
2018-08-24T08:39:20.297Z,69.71
2018-08-24T08:40:00.862Z,70.2
2018-08-24T08:40:41.446Z,70.1
2018-08-24T08:41:22.003Z,69.62
2018-08-24T08:42:02.565Z,68.46
2018-08-24T08:42:43.162Z,69.13
2018-08-24T08:43:23.863Z,69.23
2018-08-24T08:44:04.456Z,69.84
2018-08-24T08:44:45.063Z,70.32